Time;durP1;ratioP1;P1;durP2;ratioP2;P2;SDS_P1;SDS_P2;PMS_P1;PMS_P2;Temp;Humidity;BMP_temperature;BMP_pressure;BME280_temperature;BME280_humidity;BME280_pressure;Samples;Min_cycle;Max_cycle;Signal;HPM_P1;HPM_P2
2022/11/23 00:00:22;;;;;;;36.70;23.83;;;6.60;99.90;;;;;;5027535;28;20037;-53
2022/11/23 00:02:52;;;;;;;38.15;24.13;;;6.60;99.90;;;;;;5027400;28;20034;-50
2022/11/23 00:05:18;;;;;;;38.40;24.73;;;6.60;99.90;;;;;;5027771;28;20406;-51
2022/11/23 00:07:44;;;;;;;45.13;24.50;;;6.60;99.90;;;;;;5027607;28;20045;-51
2022/11/23 00:10:09;;;;;;;42.88;25.00;;;6.60;99.90;;;;;;5026159;28;20510;-52
2022/11/23 00:12:35;;;;;;;49.67;25.63;;;6.50;99.90;;;;;;5027497;28;20430;-52
2022/11/23 00:15:01;;;;;;;36.30;25.05;;;7.20;99.90;;;;;;5026394;28;20045;-52
2022/11/23 00:17:26;;;;;;;40.85;25.33;;;6.60;99.90;;;;;;5027323;28;20559;-51
2022/11/23 00:19:52;;;;;;;40.13;24.48;;;6.70;99.90;;;;;;5027203;28;20077;-52
2022/11/23 00:22:18;;;;;;;37.60;24.35;;;6.70;99.90;;;;;;5027567;28;20112;-49
2022/11/23 00:24:43;;;;;;;37.70;23.58;;;6.70;99.90;;;;;;5027244;28;20037;-51
2022/11/23 00:27:09;;;;;;;35.47;23.30;;;6.70;99.90;;;;;;5027430;28;20042;-52
2022/11/23 00:29:34;;;;;;;46.25;26.33;;;6.70;99.90;;;;;;5027182;28;20056;-52
2022/11/23 00:32:00;;;;;;;45.88;26.23;;;7.60;99.90;;;;;;5026784;28;20391;-52
2022/11/23 00:34:26;;;;;;;43.92;25.83;;;6.60;99.90;;;;;;5027341;28;20848;-52
2022/11/23 00:36:51;;;;;;;43.13;25.23;;;6.60;99.90;;;;;;5029142;28;20689;-51
2022/11/23 00:39:17;;;;;;;48.90;26.70;;;6.70;99.90;;;;;;5030804;28;20486;-52
2022/11/23 00:41:43;;;;;;;36.13;23.50;;;6.80;99.90;;;;;;5045607;28;20053;-50
2022/11/23 00:44:08;;;;;;;54.15;26.35;;;6.50;99.90;;;;;;5030585;28;20493;-51
2022/11/23 00:46:34;;;;;;;34.85;24.30;;;6.80;99.90;;;;;;5030613;28;20392;-53
2022/11/23 00:49:00;;;;;;;46.05;26.45;;;7.20;99.90;;;;;;5030547;28;20168;-52
2022/11/23 00:51:31;;;;;;;52.25;26.85;;;6.80;99.90;;;;;;5030900;28;20041;-53
2022/11/23 00:53:58;;;;;;;43.30;25.70;;;6.80;99.90;;;;;;5030562;28;20763;-52
2022/11/23 00:56:25;;;;;;;44.65;27.05;;;6.80;99.90;;;;;;5030959;28;20392;-52
2022/11/23 00:58:52;;;;;;;49.80;27.52;;;6.80;99.90;;;;;;5030399;28;20080;-52
2022/11/23 01:01:23;;;;;;;44.85;25.38;;;6.80;99.90;;;;;;5030967;28;20045;-53
2022/11/23 01:03:51;;;;;;;45.58;26.20;;;6.80;99.90;;;;;;5030803;28;20049;-53
2022/11/23 01:06:23;;;;;;;44.47;24.88;;;6.80;99.90;;;;;;5030577;28;20132;-51
2022/11/23 01:08:51;;;;;;;37.38;23.75;;;6.80;99.90;;;;;;5030381;28;20077;-51
2022/11/23 01:11:17;;;;;;;50.65;27.52;;;6.80;99.90;;;;;;5030199;28;20518;-51
2022/11/23 01:13:43;;;;;;;46.95;25.83;;;6.70;99.90;;;;;;5030060;28;20049;-52
2022/11/23 01:16:21;;;;;;;44.75;25.77;;;6.90;99.90;;;;;;5029925;28;20045;-49
2022/11/23 01:18:46;;;;;;;50.38;26.17;;;7.40;99.90;;;;;;5029873;28;20399;-52
2022/11/23 01:21:12;;;;;;;51.03;26.55;;;6.90;99.90;;;;;;5030147;28;20121;-49
2022/11/23 01:23:38;;;;;;;41.63;25.50;;;6.80;99.90;;;;;;5030144;28;20120;-51
2022/11/23 01:26:09;;;;;;;44.70;25.60;;;6.90;99.90;;;;;;5029826;28;20030;-49
2022/11/23 01:28:36;;;;;;;54.75;26.15;;;6.90;99.90;;;;;;5030048;28;20116;-51
2022/11/23 01:31:09;;;;;;;50.75;27.05;;;6.90;99.90;;;;;;5029774;28;20087;-51
2022/11/23 01:33:35;;;;;;;45.15;25.17;;;6.90;99.90;;;;;;5029950;28;20041;-52
2022/11/23 01:36:07;;;;;;;42.40;24.75;;;6.90;99.90;;;;;;5029164;28;20119;-53
2022/11/23 01:38:33;;;;;;;46.53;24.55;;;6.90;99.90;;;;;;5029817;28;20095;-51
2022/11/23 01:40:58;;;;;;;47.53;24.45;;;6.90;99.90;;;;;;5029982;28;20041;-53
2022/11/23 01:43:24;;;;;;;52.35;25.77;;;6.90;99.90;;;;;;5029852;28;20072;-52
2022/11/23 01:45:53;;;;;;;43.35;25.13;;;7.00;99.90;;;;;;5029711;28;20128;-52
2022/11/23 01:48:31;;;;;;;38.75;24.05;;;6.90;99.90;;;;;;5028048;28;20056;-52
2022/11/23 01:50:59;;;;;;;68.25;27.23;;;6.90;99.90;;;;;;5029728;28;20119;-53
2022/11/23 01:53:26;;;;;;;44.80;25.48;;;6.70;99.90;;;;;;5029600;28;20119;-51
2022/11/23 01:55:57;;;;;;;39.50;23.67;;;7.00;99.90;;;;;;5029103;28;20061;-52
2022/11/23 01:58:26;;;;;;;49.25;25.77;;;7.60;99.90;;;;;;5029372;28;20056;-50
2022/11/23 02:00:52;;;;;;;43.95;24.00;;;7.00;99.90;;;;;;5028803;28;20517;-53
2022/11/23 02:03:18;;;;;;;53.33;26.00;;;7.00;99.90;;;;;;5029355;28;20045;-51
2022/11/23 02:05:48;;;;;;;42.63;24.05;;;7.30;99.90;;;;;;5029142;28;20045;-52
2022/11/23 02:08:15;;;;;;;38.55;22.63;;;7.80;99.90;;;;;;5028977;28;20694;-52
2022/11/23 02:10:41;;;;;;;31.92;21.05;;;7.00;99.90;;;;;;5028862;28;20143;-52
2022/11/23 02:13:10;;;;;;;35.72;21.75;;;7.00;99.90;;;;;;5028902;28;20099;-52
2022/11/23 02:15:36;;;;;;;45.90;23.75;;;7.00;99.90;;;;;;5029111;28;20108;-51
2022/11/23 02:18:06;;;;;;;36.08;21.25;;;7.00;99.90;;;;;;5028879;28;20816;-53
2022/11/23 02:20:32;;;;;;;30.70;19.73;;;7.00;99.90;;;;;;5029223;28;20061;-51
2022/11/23 02:23:26;;;;;;;33.90;21.88;;;7.10;99.90;;;;;;5029026;28;20491;-51
2022/11/23 02:26:09;;;;;;;34.13;21.13;;;7.10;99.90;;;;;;5028908;28;20041;-52
2022/11/23 02:29:17;;;;;;;37.20;21.45;;;6.90;99.90;;;;;;5028928;28;20077;-52
2022/11/23 02:31:42;;;;;;;34.08;21.55;;;7.10;99.90;;;;;;5028832;28;20379;-48
2022/11/23 02:34:08;;;;;;;41.67;21.88;;;7.10;99.90;;;;;;5028818;28;20042;-52
2022/11/23 02:36:41;;;;;;;33.45;21.90;;;7.10;99.90;;;;;;5028557;28;20583;-52
2022/11/23 02:39:30;;;;;;;40.50;22.27;;;7.10;99.90;;;;;;5027984;28;20045;-53
2022/11/23 02:41:56;;;;;;;55.88;23.85;;;7.10;99.90;;;;;;5027710;28;20171;-51
2022/11/23 02:44:55;;;;;;;35.95;20.15;;;7.10;99.90;;;;;;5028766;28;20037;-52
2022/11/23 02:47:20;;;;;;;38.63;21.23;;;7.10;99.90;;;;;;5028923;28;20053;-53
2022/11/23 02:49:48;;;;;;;42.45;20.63;;;7.60;99.90;;;;;;5028347;28;20064;-51
2022/11/23 02:52:14;;;;;;;35.75;20.73;;;7.10;99.90;;;;;;5043778;28;20057;-52
2022/11/23 02:54:40;;;;;;;40.45;20.90;;;6.90;99.90;;;;;;5028904;28;20041;-52
2022/11/23 02:57:07;;;;;;;50.28;23.83;;;7.20;99.90;;;;;;5028362;28;20761;-53
2022/11/23 02:59:33;;;;;;;49.40;23.85;;;7.20;99.90;;;;;;5028802;28;20108;-53
2022/11/23 03:02:03;;;;;;;48.55;22.70;;;6.90;99.90;;;;;;5028430;28;20095;-53
2022/11/23 03:04:29;;;;;;;54.33;21.73;;;7.20;99.90;;;;;;5028700;28;20077;-53
2022/11/23 03:06:55;;;;;;;46.17;22.17;;;7.10;99.90;;;;;;5028453;28;20483;-53
2022/11/23 03:09:22;;;;;;;63.28;23.52;;;7.10;99.90;;;;;;5028428;28;20069;-51
2022/11/23 03:11:48;;;;;;;40.38;19.95;;;7.20;99.90;;;;;;5028944;28;20756;-52
2022/11/23 03:14:13;;;;;;;62.38;22.90;;;7.20;99.90;;;;;;5028412;28;20128;-50
2022/11/23 03:16:39;;;;;;;39.78;19.95;;;7.20;99.90;;;;;;5028343;28;20045;-53
2022/11/23 03:19:05;;;;;;;43.83;20.65;;;7.20;99.90;;;;;;5028455;28;20037;-52
2022/11/23 03:21:30;;;;;;;56.33;20.90;;;7.20;99.90;;;;;;5028076;28;20065;-52
2022/11/23 03:23:57;;;;;;;55.67;21.77;;;7.20;99.90;;;;;;5028362;28;20095;-51
2022/11/23 03:26:22;;;;;;;46.67;19.75;;;7.20;99.90;;;;;;5028562;28;20046;-52
2022/11/23 03:28:48;;;;;;;33.08;18.63;;;7.20;99.90;;;;;;5028745;28;20043;-52
2022/11/23 03:31:14;;;;;;;37.65;18.98;;;7.00;99.90;;;;;;5028175;28;20038;-52
2022/11/23 03:33:39;;;;;;;32.53;18.88;;;7.20;99.90;;;;;;5028445;28;20042;-52
2022/11/23 03:36:06;;;;;;;34.38;18.77;;;7.20;99.90;;;;;;5027032;28;20076;-53
2022/11/23 03:38:31;;;;;;;39.25;18.77;;;7.20;99.90;;;;;;5028332;28;20048;-53
2022/11/23 03:40:57;;;;;;;51.10;20.02;;;7.20;99.90;;;;;;5028337;28;20033;-53
2022/11/23 03:43:22;;;;;;;37.05;17.25;;;7.10;99.90;;;;;;5026683;28;20038;-52
2022/11/23 03:45:48;;;;;;;36.10;17.52;;;7.20;99.90;;;;;;5028341;28;20037;-53
2022/11/23 03:48:14;;;;;;;47.22;18.33;;;7.20;99.90;;;;;;5028173;28;20052;-53
2022/11/23 03:50:40;;;;;;;45.42;18.50;;;7.70;99.90;;;;;;5026992;28;20152;-50
2022/11/23 03:53:06;;;;;;;38.90;17.77;;;7.10;99.90;;;;;;5027972;28;20474;-51
2022/11/23 03:55:33;;;;;;;35.22;18.13;;;7.10;99.90;;;;;;5043031;28;20424;-53
2022/11/23 03:57:59;;;;;;;40.38;19.25;;;7.10;99.90;;;;;;5026427;28;20395;-52
2022/11/23 04:00:26;;;;;;;42.78;18.08;;;7.10;99.90;;;;;;5027823;28;20396;-53
2022/11/23 04:02:52;;;;;;;39.53;17.80;;;7.10;99.90;;;;;;5026384;28;20042;-52
2022/11/23 04:05:18;;;;;;;51.08;20.20;;;7.20;99.90;;;;;;5027957;28;20361;-51
2022/11/23 04:07:46;;;;;;;33.35;17.33;;;7.20;99.90;;;;;;5028104;28;20041;-53
2022/11/23 04:10:13;;;;;;;62.10;21.33;;;7.20;99.90;;;;;;5026799;28;20134;-51
2022/11/23 04:12:39;;;;;;;60.00;20.10;;;7.20;99.90;;;;;;5027976;28;20123;-52
2022/11/23 04:15:05;;;;;;;65.57;21.23;;;8.00;99.90;;;;;;5027676;28;20088;-53
2022/11/23 04:17:31;;;;;;;47.20;18.92;;;7.30;99.90;;;;;;5027559;28;20114;-52
2022/11/23 04:19:56;;;;;;;36.03;18.25;;;7.20;99.90;;;;;;5027749;28;20037;-51
2022/11/23 04:22:22;;;;;;;44.83;20.25;;;7.20;99.90;;;;;;5027574;28;20091;-52
2022/11/23 04:24:48;;;;;;;61.72;21.77;;;7.30;99.90;;;;;;5027536;28;20087;-53
2022/11/23 04:27:13;;;;;;;41.25;19.23;;;7.30;99.90;;;;;;5025717;28;20060;-53
2022/11/23 04:29:39;;;;;;;60.13;21.60;;;7.30;99.90;;;;;;5027561;28;20048;-52
2022/11/23 04:32:04;;;;;;;71.38;22.63;;;7.30;99.90;;;;;;5027500;28;20044;-52
2022/11/23 04:34:30;;;;;;;43.40;20.25;;;7.30;99.90;;;;;;5042229;28;20415;-53
2022/11/23 04:36:56;;;;;;;43.95;19.77;;;7.30;99.90;;;;;;5027089;28;20503;-53
2022/11/23 04:39:21;;;;;;;63.78;21.95;;;7.30;99.90;;;;;;5027384;28;20368;-52
2022/11/23 04:41:47;;;;;;;51.10;20.42;;;7.30;99.90;;;;;;5027141;28;20041;-53
2022/11/23 04:44:13;;;;;;;51.97;22.13;;;7.30;99.90;;;;;;5027198;28;20146;-51
2022/11/23 04:46:38;;;;;;;67.93;23.52;;;7.20;99.90;;;;;;5027184;28;20516;-52
2022/11/23 04:49:04;;;;;;;69.35;23.45;;;7.20;99.90;;;;;;5027305;28;20060;-52
2022/11/23 04:51:29;;;;;;;70.65;24.58;;;8.10;99.90;;;;;;5027112;28;20045;-53
2022/11/23 04:53:55;;;;;;;62.90;22.25;;;7.30;99.90;;;;;;5027321;28;20048;-52
2022/11/23 04:56:21;;;;;;;61.97;23.70;;;7.20;99.90;;;;;;5027051;28;20048;-52
2022/11/23 04:58:46;;;;;;;65.05;24.02;;;7.20;99.90;;;;;;5027273;28;20479;-52
2022/11/23 05:01:12;;;;;;;54.90;22.02;;;7.20;99.90;;;;;;5026937;28;20816;-53
2022/11/23 05:03:37;;;;;;;62.80;23.20;;;7.20;99.90;;;;;;5027118;28;20883;-53
2022/11/23 05:06:04;;;;;;;64.47;24.25;;;7.20;99.90;;;;;;5026974;28;20180;-53
2022/11/23 05:08:30;;;;;;;68.28;24.80;;;7.20;99.90;;;;;;5026835;28;20060;-52
2022/11/23 05:10:56;;;;;;;48.20;22.35;;;7.10;99.90;;;;;;5026734;28;20053;-52
2022/11/23 05:13:22;;;;;;;60.42;24.20;;;7.10;99.90;;;;;;5026548;28;20049;-50
2022/11/23 05:15:48;;;;;;;56.63;23.13;;;7.10;99.90;;;;;;5026709;28;20049;-52
2022/11/23 05:18:14;;;;;;;49.83;22.65;;;7.20;99.90;;;;;;5026630;28;20479;-51
2022/11/23 05:20:39;;;;;;;48.72;22.38;;;7.10;99.90;;;;;;5026962;28;20050;-52
2022/11/23 05:23:05;;;;;;;62.60;24.30;;;7.10;99.90;;;;;;5029569;28;20041;-52
2022/11/23 05:25:31;;;;;;;45.97;21.60;;;7.50;99.90;;;;;;5030339;28;20057;-52
2022/11/23 05:27:57;;;;;;;60.28;24.00;;;7.10;99.90;;;;;;5029999;28;20060;-51
2022/11/23 05:30:23;;;;;;;45.90;21.58;;;7.20;99.90;;;;;;5030019;28;20487;-51
2022/11/23 05:32:48;;;;;;;75.72;25.35;;;7.30;99.90;;;;;;5028931;28;20208;-52
2022/11/23 05:35:14;;;;;;;71.32;25.48;;;8.10;99.90;;;;;;5030200;28;20116;-51
2022/11/23 05:37:40;;;;;;;61.90;24.80;;;7.20;99.90;;;;;;5029913;28;20053;-52
2022/11/23 05:40:07;;;;;;;63.58;24.48;;;7.30;99.90;;;;;;5030272;28;20098;-53
2022/11/23 05:42:33;;;;;;;66.95;23.67;;;7.20;99.90;;;;;;5029596;28;20475;-53
2022/11/23 05:44:59;;;;;;;52.15;21.75;;;7.10;99.90;;;;;;5030024;28;20048;-52
2022/11/23 05:47:24;;;;;;;67.03;24.27;;;7.20;99.90;;;;;;5029443;28;20124;-53
2022/11/23 05:49:50;;;;;;;48.85;20.95;;;7.20;99.90;;;;;;5029822;28;20649;-51
2022/11/23 05:52:16;;;;;;;66.07;23.10;;;7.20;99.90;;;;;;5029701;28;20494;-53
2022/11/23 05:54:42;;;;;;;40.78;20.48;;;7.20;99.90;;;;;;5029754;28;20068;-53
2022/11/23 05:57:08;;;;;;;50.58;22.40;;;7.10;99.90;;;;;;5029684;28;20570;-53
2022/11/23 05:59:34;;;;;;;76.78;24.45;;;7.10;99.90;;;;;;5029716;28;20048;-52
2022/11/23 06:01:59;;;;;;;49.30;20.67;;;7.10;99.90;;;;;;5028702;28;20849;-52
2022/11/23 06:04:25;;;;;;;47.60;21.27;;;7.00;99.90;;;;;;5029684;28;20372;-52
2022/11/23 06:06:53;;;;;;;37.63;19.40;;;7.80;99.90;;;;;;5029510;28;20403;-53
2022/11/23 06:09:19;;;;;;;45.17;18.95;;;7.00;99.90;;;;;;5029362;28;20065;-52
2022/11/23 06:11:47;;;;;;;51.53;19.08;;;6.90;99.90;;;;;;5029018;28;20148;-52
2022/11/23 06:14:13;;;;;;;55.55;20.23;;;6.90;99.90;;;;;;5029640;28;20052;-51
2022/11/23 06:16:38;;;;;;;42.67;18.33;;;7.20;99.90;;;;;;5029296;28;20053;-51
2022/11/23 06:19:04;;;;;;;46.40;19.08;;;6.90;99.90;;;;;;5029639;28;20056;-52
2022/11/23 06:21:30;;;;;;;47.28;17.65;;;6.80;99.90;;;;;;5028170;28;20049;-53
2022/11/23 06:23:55;;;;;;;61.67;20.17;;;7.50;99.90;;;;;;5029507;28;20038;-52
2022/11/23 06:26:21;;;;;;;42.45;16.80;;;6.80;99.90;;;;;;5029600;28;20426;-49
2022/11/23 06:28:47;;;;;;;48.30;18.08;;;6.60;99.90;;;;;;5029258;28;20572;-52
2022/11/23 06:31:12;;;;;;;37.50;15.65;;;6.70;99.90;;;;;;5029442;28;20045;-50
2022/11/23 06:33:38;;;;;;;29.33;14.73;;;6.70;99.90;;;;;;5028495;28;20050;-51
2022/11/23 06:36:04;;;;;;;43.33;16.35;;;6.70;99.90;;;;;;5029031;28;20037;-50
2022/11/23 06:38:29;;;;;;;26.17;14.60;;;6.70;99.90;;;;;;5028823;28;20056;-52
2022/11/23 06:40:59;;;;;;;40.95;15.38;;;6.70;99.90;;;;;;5029091;28;20541;-53
2022/11/23 06:43:25;;;;;;;40.75;15.10;;;6.70;99.90;;;;;;5029355;28;20068;-53
2022/11/23 06:45:51;;;;;;;30.35;13.05;;;6.70;99.90;;;;;;5029049;28;20037;-52
2022/11/23 06:48:16;;;;;;;34.88;13.48;;;6.70;99.90;;;;;;5028942;28;20507;-52
2022/11/23 06:50:42;;;;;;;44.05;14.85;;;6.60;99.90;;;;;;5027640;28;20056;-52
2022/11/23 06:53:11;;;;;;;41.00;15.88;;;6.70;99.90;;;;;;5029047;28;20048;-51
2022/11/23 06:55:37;;;;;;;58.53;16.88;;;6.70;99.90;;;;;;5029259;28;20045;-52
2022/11/23 06:58:02;;;;;;;35.85;14.50;;;6.70;99.90;;;;;;5027564;28;20403;-52
2022/11/23 07:00:28;;;;;;;36.67;13.75;;;6.60;99.90;;;;;;5027916;28;20037;-52
2022/11/23 07:02:55;;;;;;;34.80;13.00;;;7.20;99.90;;;;;;5028977;28;20114;-52
2022/11/23 07:05:21;;;;;;;31.15;12.70;;;7.10;99.90;;;;;;5028001;28;20057;-53
2022/11/23 07:07:47;;;;;;;29.38;12.05;;;6.50;99.90;;;;;;5027650;28;20049;-53
2022/11/23 07:10:13;;;;;;;35.10;12.25;;;7.20;99.90;;;;;;5029237;28;20542;-51
2022/11/23 07:12:39;;;;;;;34.67;12.20;;;6.40;99.90;;;;;;5029126;28;20533;-51
2022/11/23 07:15:06;;;;;;;33.80;12.57;;;6.30;99.90;;;;;;5029017;28;20490;-53
2022/11/23 07:17:31;;;;;;;23.63;10.25;;;6.30;99.90;;;;;;5029189;28;20045;-53
2022/11/23 07:19:57;;;;;;;28.35;12.27;;;6.20;99.90;;;;;;5028154;28;20045;-53
2022/11/23 07:22:23;;;;;;;26.85;12.05;;;6.20;99.90;;;;;;5028905;28;20037;-52
2022/11/23 07:24:48;;;;;;;24.73;10.75;;;6.20;99.90;;;;;;5027404;28;20046;-51
2022/11/23 07:27:17;;;;;;;32.80;10.07;;;6.30;99.90;;;;;;5028447;28;20387;-52
2022/11/23 07:29:43;;;;;;;25.50;10.82;;;6.40;99.90;;;;;;5028418;28;20049;-52
2022/11/23 07:32:09;;;;;;;25.25;10.32;;;6.40;99.90;;;;;;5028269;28;20411;-52
2022/11/23 07:34:34;;;;;;;29.90;10.32;;;6.40;99.90;;;;;;5028021;28;20041;-53
2022/11/23 07:37:00;;;;;;;29.83;10.63;;;6.40;99.90;;;;;;5028492;28;20128;-52
2022/11/23 07:39:25;;;;;;;26.25;9.57;;;6.50;99.90;;;;;;5027218;28;20064;-53
2022/11/23 07:41:51;;;;;;;26.38;9.00;;;7.30;99.90;;;;;;5027944;28;20470;-51
2022/11/23 07:44:17;;;;;;;28.15;10.95;;;7.10;99.90;;;;;;5027562;28;20038;-51
2022/11/23 07:46:42;;;;;;;21.08;9.13;;;6.50;99.90;;;;;;5026255;28;20037;-52
2022/11/23 07:49:08;;;;;;;29.45;11.23;;;6.50;99.90;;;;;;5027693;28;20049;-53
2022/11/23 07:51:33;;;;;;;26.08;9.65;;;6.50;99.90;;;;;;5028035;28;20132;-51
2022/11/23 07:53:59;;;;;;;27.23;9.27;;;6.50;99.90;;;;;;5027756;28;20053;-53
2022/11/23 07:56:25;;;;;;;33.20;10.63;;;6.50;99.90;;;;;;5026745;28;20041;-52
2022/11/23 07:58:50;;;;;;;27.05;10.40;;;6.50;99.90;;;;;;5027607;28;20048;-53
2022/11/23 08:01:17;;;;;;;24.00;9.45;;;6.40;99.90;;;;;;5027991;28;20049;-53
2022/11/23 08:03:47;;;;;;;24.85;9.93;;;6.60;99.90;;;;;;5027146;28;20045;-52
2022/11/23 08:06:14;;;;;;;33.72;10.18;;;6.60;99.90;;;;;;5027613;28;20041;-53
2022/11/23 08:08:41;;;;;;;21.08;9.73;;;6.70;99.90;;;;;;5027436;28;20044;-53
2022/11/23 08:11:08;;;;;;;32.70;11.23;;;6.70;99.90;;;;;;5026552;28;20416;-53
2022/11/23 08:13:34;;;;;;;25.42;10.07;;;6.80;99.90;;;;;;5027488;28;20136;-52
2022/11/23 08:16:00;;;;;;;25.30;10.38;;;6.80;99.90;;;;;;5026864;28;20051;-54
2022/11/23 08:18:27;;;;;;;23.50;10.18;;;6.80;99.90;;;;;;5027069;28;20045;-53
2022/11/23 08:20:52;;;;;;;26.08;9.90;;;6.80;99.90;;;;;;5027077;28;20045;-53
2022/11/23 08:23:19;;;;;;;30.75;10.48;;;7.00;99.90;;;;;;5027014;28;20391;-53
2022/11/23 08:25:45;;;;;;;25.00;10.80;;;6.90;99.90;;;;;;5026830;28;20511;-53
2022/11/23 08:28:11;;;;;;;32.03;10.40;;;7.00;99.90;;;;;;5024884;28;20132;-53
2022/11/23 08:30:38;;;;;;;24.08;9.90;;;7.00;99.90;;;;;;5026777;28;20172;-51
2022/11/23 08:33:05;;;;;;;30.02;11.75;;;7.10;99.90;;;;;;5026023;28;20045;-51
2022/11/23 08:35:35;;;;;;;24.60;9.70;;;7.10;99.90;;;;;;5026900;28;20056;-53
2022/11/23 08:38:01;;;;;;;25.35;8.98;;;7.20;99.90;;;;;;5026151;28;20053;-53
2022/11/23 08:40:27;;;;;;;25.05;9.13;;;7.20;99.90;;;;;;5026716;28;20095;-53
2022/11/23 08:42:53;;;;;;;32.22;10.93;;;7.20;99.90;;;;;;5026549;28;20041;-53
2022/11/23 08:45:19;;;;;;;26.80;9.60;;;7.30;99.90;;;;;;5041926;28;20557;-53
2022/11/23 08:47:45;;;;;;;21.85;8.40;;;7.60;99.90;;;;;;5026709;28;20077;-54
2022/11/23 08:50:11;;;;;;;31.05;9.32;;;7.30;99.90;;;;;;5026917;28;20069;-52
2022/11/23 08:52:37;;;;;;;20.42;8.90;;;7.40;99.90;;;;;;5026329;28;20049;-52
2022/11/23 08:55:03;;;;;;;26.85;9.05;;;7.30;99.90;;;;;;5025198;28;20045;-53
2022/11/23 08:57:29;;;;;;;23.35;8.90;;;7.40;99.90;;;;;;5030311;28;20184;-53
2022/11/23 08:59:55;;;;;;;26.35;10.07;;;7.50;99.90;;;;;;5030210;28;20131;-52
2022/11/23 09:02:21;;;;;;;18.92;7.68;;;7.40;99.90;;;;;;5030389;28;20180;-54
2022/11/23 09:04:46;;;;;;;18.70;7.60;;;7.80;99.90;;;;;;5031082;28;20050;-54
2022/11/23 09:07:12;;;;;;;26.33;8.40;;;7.50;99.90;;;;;;5030614;28;20054;-53
2022/11/23 09:09:38;;;;;;;20.05;7.95;;;7.60;99.90;;;;;;5030528;28;20137;-53
2022/11/23 09:12:04;;;;;;;20.77;8.02;;;7.60;99.90;;;;;;5030815;28;20087;-54
2022/11/23 09:14:30;;;;;;;22.63;7.10;;;7.70;99.90;;;;;;5029449;28;20797;-53
2022/11/23 09:16:56;;;;;;;19.30;7.57;;;7.70;99.90;;;;;;5030877;28;20049;-53
2022/11/23 09:19:21;;;;;;;15.70;6.70;;;7.70;99.90;;;;;;5030929;28;20049;-53
2022/11/23 09:21:47;;;;;;;21.30;7.25;;;7.50;99.90;;;;;;5030655;28;20822;-53
2022/11/23 09:24:13;;;;;;;20.25;6.63;;;8.20;99.90;;;;;;5029944;28;20483;-53
2022/11/23 09:26:39;;;;;;;17.35;6.55;;;8.10;99.90;;;;;;5028669;28;20053;-53
2022/11/23 09:29:07;;;;;;;22.40;8.10;;;7.80;99.90;;;;;;5029814;28;20100;-53
2022/11/23 09:31:33;;;;;;;16.63;6.45;;;7.90;99.90;;;;;;5030220;28;20370;-54
2022/11/23 09:33:59;;;;;;;19.42;7.22;;;7.90;99.90;;;;;;5029944;28;20121;-52
2022/11/23 09:36:25;;;;;;;19.90;6.47;;;7.90;99.90;;;;;;5030243;28;20124;-51
2022/11/23 09:38:51;;;;;;;14.07;6.35;;;8.00;99.90;;;;;;5026558;28;20077;-50
2022/11/23 09:41:52;;;;;;;19.40;5.78;;;8.10;99.90;;;;;;5023571;28;20369;-53
2022/11/23 09:44:32;;;;;;;24.08;6.03;;;8.20;99.90;;;;;;5026099;28;20509;-52
2022/11/23 09:47:07;;;;;;;13.23;5.38;;;8.20;99.90;;;;;;5009900;28;20434;-57
2022/11/23 09:49:51;;;;;;;13.75;4.72;;;8.20;99.90;;;;;;5028469;28;20124;-57
2022/11/23 09:52:20;;;;;;;15.55;4.85;;;8.20;99.90;;;;;;5027071;28;20041;-56
2022/11/23 09:54:48;;;;;;;14.32;4.15;;;8.20;99.90;;;;;;5043678;28;20080;-54
2022/11/23 09:57:20;;;;;;;18.77;4.15;;;8.20;99.90;;;;;;5027432;28;20207;-57
2022/11/23 10:00:00;;;;;;;14.30;4.68;;;8.20;99.90;;;;;;5028478;28;20041;-56
2022/11/23 10:02:30;;;;;;;15.27;4.15;;;8.20;99.90;;;;;;5021872;28;20501;-54
2022/11/23 10:04:59;;;;;;;16.50;3.75;;;8.20;99.90;;;;;;5045402;28;20041;-53
2022/11/23 10:07:38;;;;;;;12.40;3.40;;;8.10;99.90;;;;;;5044922;28;20063;-53
2022/11/23 10:10:59;;;;;;;13.10;3.58;;;8.20;99.90;;;;;;5055037;28;20068;-58
2022/11/23 10:13:42;;;;;;;16.35;3.22;;;8.20;99.90;;;;;;5049439;28;20049;-55
2022/11/23 10:16:38;;;;;;;13.77;3.05;;;8.80;99.90;;;;;;5063896;28;20044;-57
2022/11/23 10:19:32;;;;;;;18.20;4.53;;;8.20;99.90;;;;;;5061904;28;20056;-54
2022/11/23 10:22:09;;;;;;;15.88;3.78;;;8.20;99.90;;;;;;5063499;28;20470;-57
2022/11/23 10:24:51;;;;;;;13.30;3.45;;;8.20;99.90;;;;;;5063954;28;20793;-57
2022/11/23 10:27:20;;;;;;;13.75;3.92;;;8.20;99.90;;;;;;5066465;28;20172;-59
2022/11/23 10:29:51;;;;;;;17.98;3.75;;;8.20;99.90;;;;;;5067965;28;20101;-64
2022/11/23 10:32:51;;;;;;;21.17;2.70;;;8.20;99.90;;;;;;5066734;28;20483;-63
2022/11/23 10:35:32;;;;;;;15.85;4.70;;;8.20;99.90;;;;;;5064595;28;20135;-58
2022/11/23 10:38:11;;;;;;;17.45;3.17;;;8.30;99.90;;;;;;5065482;28;20155;-57
2022/11/23 10:40:42;;;;;;;14.75;3.17;;;8.30;99.90;;;;;;5064803;28;20080;-54
2022/11/23 10:43:20;;;;;;;16.50;2.67;;;8.40;99.90;;;;;;5064739;28;20656;-60
2022/11/23 10:45:47;;;;;;;16.08;3.45;;;8.50;99.90;;;;;;5080594;28;20052;-57
2022/11/23 10:48:34;;;;;;;14.18;3.65;;;8.60;99.90;;;;;;5080188;28;20436;-56
2022/11/23 10:51:18;;;;;;;16.52;2.75;;;8.70;99.90;;;;;;5065080;28;20476;-61
2022/11/23 10:53:52;;;;;;;15.02;3.45;;;8.70;99.90;;;;;;5064890;28;20061;-59
2022/11/23 10:56:18;;;;;;;11.13;2.75;;;8.70;99.90;;;;;;5065820;28;20812;-61
2022/11/23 10:58:45;;;;;;;14.93;2.33;;;8.70;99.90;;;;;;5065175;28;20040;-61
2022/11/23 11:01:17;;;;;;;14.82;2.50;;;8.70;99.90;;;;;;5080840;28;20059;-61
2022/11/23 11:03:43;;;;;;;14.05;2.53;;;8.60;99.90;;;;;;5081539;28;20045;-60
2022/11/23 11:06:10;;;;;;;21.13;2.92;;;8.70;99.90;;;;;;5063948;28;20044;-58
2022/11/23 11:08:54;;;;;;;8.95;1.98;;;8.70;99.90;;;;;;5063925;28;20056;-65
2022/11/23 11:11:30;;;;;;;13.85;2.45;;;8.80;99.90;;;;;;5063887;28;20406;-65
2022/11/23 11:14:15;;;;;;;16.70;2.20;;;8.90;99.90;;;;;;5081239;28;20044;-62
2022/11/23 11:16:55;;;;;;;11.20;1.75;;;8.90;99.90;;;;;;5037741;28;20064;-58
2022/11/23 11:19:20;;;;;;;14.05;3.22;;;9.10;99.90;;;;;;5064052;28;20072;-61
2022/11/23 11:21:46;;;;;;;12.63;2.33;;;8.90;99.90;;;;;;5064835;28;20533;-52
2022/11/23 11:24:29;;;;;;;12.18;2.05;;;9.00;99.90;;;;;;5066250;28;20041;-55
2022/11/23 11:27:02;;;;;;;20.05;4.30;;;9.20;99.90;;;;;;5082297;28;20132;-54
2022/11/23 11:29:53;;;;;;;23.02;2.90;;;9.30;99.90;;;;;;5065946;28;20056;-58
2022/11/23 11:32:37;;;;;;;15.57;2.78;;;9.30;99.90;;;;;;5063767;28;20103;-57
2022/11/23 11:35:22;;;;;;;11.35;2.42;;;9.20;99.90;;;;;;5064217;28;20102;-60
2022/11/23 11:37:50;;;;;;;14.52;2.50;;;9.10;99.90;;;;;;5065524;28;20044;-57
2022/11/23 11:40:33;;;;;;;10.23;1.80;;;9.00;99.90;;;;;;5063510;28;20040;-57
2022/11/23 11:43:12;;;;;;;14.18;2.63;;;8.90;99.90;;;;;;5079780;28;20051;-55
2022/11/23 11:45:53;;;;;;;17.17;3.22;;;8.80;99.90;;;;;;5080224;28;20049;-57
2022/11/23 11:48:22;;;;;;;13.97;2.33;;;8.80;99.90;;;;;;5065377;28;20052;-58
2022/11/23 11:51:06;;;;;;;11.38;2.03;;;8.80;99.90;;;;;;5065478;28;20051;-57
2022/11/23 11:53:44;;;;;;;15.35;1.85;;;8.80;99.90;;;;;;5065383;28;20394;-56
2022/11/23 11:56:29;;;;;;;13.95;2.15;;;8.70;99.90;;;;;;5065743;28;20730;-50
2022/11/23 11:59:25;;;;;;;14.63;2.50;;;8.70;99.90;;;;;;5080725;28;20048;-50
2022/11/23 12:01:56;;;;;;;10.77;1.50;;;8.60;99.90;;;;;;5065309;28;20075;-55
2022/11/23 12:04:31;;;;;;;10.55;1.70;;;8.50;99.90;;;;;;5080541;28;20055;-55
2022/11/23 12:07:50;;;;;;;15.00;1.88;;;8.50;99.90;;;;;;5065185;28;20051;-56
2022/11/23 12:10:32;;;;;;;15.82;1.75;;;8.50;99.90;;;;;;5041357;28;20065;-48
2022/11/23 12:12:58;;;;;;;;;;;8.50;99.90;;;;;;5042810;28;20095;-47
2022/11/23 12:15:31;;;;;;;14.60;1.55;;;8.50;99.90;;;;;;5054998;28;19920;-51
2022/11/23 12:18:16;;;;;;;13.38;1.92;;;8.50;99.90;;;;;;5080525;28;20138;-51
2022/11/23 12:20:53;;;;;;;11.10;2.22;;;8.50;99.90;;;;;;5065284;28;20036;-52
2022/11/23 12:24:02;;;;;;;8.73;1.80;;;8.50;99.90;;;;;;5065745;28;20037;-49
2022/11/23 12:26:56;;;;;;;13.65;2.50;;;8.60;99.90;;;;;;5065825;28;20108;-52
2022/11/23 12:29:38;;;;;;;8.65;1.70;;;8.60;99.90;;;;;;5065226;28;20043;-49
2022/11/23 12:32:24;;;;;;;10.18;1.20;;;8.60;99.90;;;;;;5084768;28;20045;-52
2022/11/23 12:34:58;;;;;;;8.95;1.10;;;8.50;99.90;;;;;;5070216;28;20039;-49
2022/11/23 12:37:45;;;;;;;13.35;1.90;;;8.40;99.90;;;;;;5069592;28;20051;-50
2022/11/23 12:40:23;;;;;;;14.98;2.03;;;8.50;99.90;;;;;;5070042;28;20156;-50
2022/11/23 12:43:12;;;;;;;8.38;1.38;;;8.50;99.90;;;;;;5069591;28;20079;-49
2022/11/23 12:46:16;;;;;;;13.60;1.77;;;8.50;99.90;;;;;;5068538;28;20056;-49
2022/11/23 12:49:03;;;;;;;8.20;1.30;;;8.60;99.90;;;;;;5049865;28;20125;-48
2022/11/23 12:51:53;;;;;;;6.45;1.20;;;8.60;99.90;;;;;;5069727;28;20055;-52
2022/11/23 12:54:43;;;;;;;11.77;1.77;;;8.60;99.90;;;;;;5069313;28;20040;-50